createdAt,value
2022-11-15T00:00:42.301Z,43.78
2022-11-15T00:01:42.413Z,43.13
2022-11-15T00:02:42.309Z,42.17
2022-11-15T00:03:42.287Z,43.13
2022-11-15T00:04:42.302Z,42.49
2022-11-15T00:05:42.308Z,43.78
2022-11-15T00:06:42.264Z,43.78
2022-11-15T00:07:55.190Z,43.46
2022-11-15T00:08:42.223Z,45.07
2022-11-15T00:09:45.956Z,44.10
2022-11-15T00:10:42.206Z,43.46
2022-11-15T00:11:42.194Z,43.46
2022-11-15T00:12:42.188Z,43.78
2022-11-15T00:13:42.227Z,41.85
2022-11-15T00:14:42.175Z,43.78
2022-11-15T00:15:42.182Z,43.46
2022-11-15T00:16:42.116Z,44.10
2022-11-15T00:17:42.097Z,44.10
2022-11-15T00:18:46.376Z,43.78
2022-11-15T00:19:42.085Z,44.42
2022-11-15T00:20:42.055Z,43.46
2022-11-15T00:21:42.091Z,43.78
2022-11-15T00:22:42.050Z,43.78
2022-11-15T00:23:42.031Z,46.04
2022-11-15T00:24:41.995Z,43.46
2022-11-15T00:25:42.001Z,44.10
2022-11-15T00:26:42.000Z,44.75
2022-11-15T00:27:41.970Z,44.75
2022-11-15T00:28:41.978Z,43.78
2022-11-15T00:29:41.993Z,43.13
2022-11-15T00:30:41.980Z,43.13
2022-11-15T00:31:41.930Z,42.81
2022-11-15T00:32:41.935Z,43.78
2022-11-15T00:33:41.912Z,43.78
2022-11-15T00:34:41.887Z,44.75
2022-11-15T00:35:41.886Z,43.78
2022-11-15T00:36:41.859Z,43.78
2022-11-15T00:37:48.694Z,43.46
2022-11-15T00:38:41.844Z,43.78
2022-11-15T00:39:41.818Z,43.78
2022-11-15T00:40:41.844Z,43.78
2022-11-15T00:41:41.810Z,44.10
2022-11-15T00:42:41.786Z,44.10
2022-11-15T00:43:41.805Z,43.13
2022-11-15T00:44:41.796Z,43.78
2022-11-15T00:45:41.735Z,42.49
2022-11-15T00:46:41.725Z,45.71
2022-11-15T00:47:41.697Z,44.75
2022-11-15T00:48:41.715Z,43.78
2022-11-15T00:49:41.713Z,42.17
2022-11-15T00:50:41.689Z,43.13
2022-11-15T00:51:41.675Z,43.46
2022-11-15T00:52:41.651Z,44.42
2022-11-15T00:53:41.614Z,44.42
2022-11-15T00:54:41.623Z,44.75
2022-11-15T00:55:41.636Z,43.78
2022-11-15T00:56:41.597Z,43.78
2022-11-15T00:57:41.580Z,43.78
2022-11-15T00:58:41.554Z,44.75
2022-11-15T00:59:41.538Z,54.09
2022-11-15T01:00:41.578Z,56.67
2022-11-15T01:01:41.537Z,54.41
2022-11-15T01:02:41.574Z,57.31
2022-11-15T01:03:41.507Z,54.09
2022-11-15T01:04:41.503Z,52.80
2022-11-15T01:05:41.469Z,54.74
2022-11-15T01:06:41.451Z,53.12
2022-11-15T01:07:41.464Z,53.12
2022-11-15T01:08:41.430Z,53.77
2022-11-15T01:09:41.427Z,54.09
2022-11-15T01:10:41.408Z,43.78
2022-11-15T01:11:41.387Z,44.75
2022-11-15T01:12:41.383Z,43.78
2022-11-15T01:13:41.366Z,44.75
2022-11-15T01:14:41.361Z,45.07
2022-11-15T01:15:41.344Z,43.46
2022-11-15T01:16:41.338Z,43.78
2022-11-15T01:17:41.334Z,46.68
2022-11-15T01:18:41.359Z,44.42
2022-11-15T01:19:41.307Z,44.75
2022-11-15T01:20:41.339Z,43.46
2022-11-15T01:21:41.274Z,44.75
2022-11-15T01:22:41.265Z,45.39
2022-11-15T01:23:41.254Z,44.42
2022-11-15T01:24:41.255Z,44.10
2022-11-15T01:25:41.231Z,44.10
2022-11-15T01:26:41.210Z,46.36
2022-11-15T01:27:41.184Z,44.10
2022-11-15T01:28:41.176Z,44.10
2022-11-15T01:29:41.166Z,43.78
2022-11-15T01:30:41.192Z,44.75
2022-11-15T01:31:41.216Z,43.78
2022-11-15T01:32:41.138Z,45.07
2022-11-15T01:33:41.113Z,43.78
2022-11-15T01:34:41.184Z,44.10
2022-11-15T01:35:41.074Z,44.42
2022-11-15T01:36:41.090Z,42.49
2022-11-15T01:37:41.067Z,44.10
2022-11-15T01:38:41.058Z,44.42
2022-11-15T01:39:41.058Z,44.75
2022-11-15T01:40:41.027Z,43.78
2022-11-15T01:41:41.039Z,44.42
2022-11-15T01:42:40.995Z,43.78
2022-11-15T01:43:40.994Z,43.78
2022-11-15T01:44:41.003Z,43.78
2022-11-15T01:45:40.968Z,44.75
2022-11-15T01:46:40.946Z,43.46
2022-11-15T01:47:40.928Z,45.71
2022-11-15T01:48:40.907Z,44.75
2022-11-15T01:49:40.908Z,45.07
2022-11-15T01:50:40.916Z,44.42
2022-11-15T01:51:40.927Z,45.07
2022-11-15T01:52:40.855Z,45.71
2022-11-15T01:53:40.836Z,44.10
2022-11-15T01:54:40.839Z,44.42
2022-11-15T01:55:40.811Z,45.71
2022-11-15T01:56:40.811Z,44.75
2022-11-15T01:57:40.945Z,44.75
2022-11-15T01:58:40.793Z,44.10
2022-11-15T01:59:40.780Z,44.75
2022-11-15T02:00:40.807Z,45.07
2022-11-15T02:01:40.867Z,44.42
2022-11-15T02:02:40.751Z,45.07
2022-11-15T02:03:40.728Z,44.42
2022-11-15T02:04:40.734Z,44.42
2022-11-15T02:05:40.702Z,43.78
2022-11-15T02:06:40.700Z,44.42
2022-11-15T02:07:40.679Z,43.78
2022-11-15T02:08:40.691Z,44.75
2022-11-15T02:09:40.661Z,45.07
2022-11-15T02:10:40.664Z,45.07
2022-11-15T02:11:40.637Z,44.42
2022-11-15T02:12:40.635Z,44.42
2022-11-15T02:13:40.628Z,44.75
2022-11-15T02:14:40.594Z,44.10
2022-11-15T02:15:40.564Z,44.75
2022-11-15T02:16:40.575Z,44.75
2022-11-15T02:17:40.550Z,44.42
2022-11-15T02:18:40.525Z,44.75
2022-11-15T02:19:40.596Z,43.78
2022-11-15T02:20:40.513Z,44.75
2022-11-15T02:21:40.493Z,43.78
2022-11-15T02:22:40.512Z,44.42
2022-11-15T02:23:40.449Z,44.42
2022-11-15T02:24:40.470Z,44.42
2022-11-15T02:25:40.450Z,44.75
2022-11-15T02:26:40.447Z,45.07
2022-11-15T02:27:40.415Z,45.71
2022-11-15T02:28:40.428Z,44.75
2022-11-15T02:29:40.386Z,45.07
2022-11-15T02:30:40.381Z,44.75
2022-11-15T02:31:40.352Z,44.42
2022-11-15T02:32:40.349Z,42.49
2022-11-15T02:33:40.352Z,45.07
2022-11-15T02:34:40.334Z,44.42
2022-11-15T02:35:40.305Z,44.75
2022-11-15T02:36:40.306Z,43.78
2022-11-15T02:37:40.371Z,44.42
2022-11-15T02:38:40.294Z,45.07
2022-11-15T02:39:40.251Z,44.75
2022-11-15T02:40:40.240Z,45.39
2022-11-15T02:41:40.238Z,45.07
2022-11-15T02:42:40.218Z,44.42
2022-11-15T02:43:40.254Z,45.07
2022-11-15T02:44:40.190Z,44.75
2022-11-15T02:45:40.178Z,45.71
2022-11-15T02:46:40.158Z,45.39
2022-11-15T02:47:40.143Z,44.42
2022-11-15T02:48:40.165Z,43.78
2022-11-15T02:49:40.146Z,43.46
2022-11-15T02:50:40.101Z,45.07
2022-11-15T02:51:40.095Z,44.75
2022-11-15T02:52:40.112Z,43.46
2022-11-15T02:53:40.081Z,43.46
2022-11-15T02:54:40.109Z,48.29
2022-11-15T02:55:40.129Z,44.75
2022-11-15T02:56:40.053Z,44.42
2022-11-15T02:57:40.047Z,44.75
2022-11-15T02:58:40.006Z,44.75
2022-11-15T02:59:40.165Z,44.75
2022-11-15T03:00:40.092Z,45.71
2022-11-15T03:01:40.029Z,44.75
2022-11-15T03:02:39.953Z,45.71
2022-11-15T03:03:39.961Z,44.75
2022-11-15T03:04:39.923Z,44.10
2022-11-15T03:05:39.914Z,44.75
2022-11-15T03:06:39.897Z,43.78
2022-11-15T03:07:39.885Z,45.07
2022-11-15T03:08:39.888Z,45.39
2022-11-15T03:09:39.862Z,44.75
2022-11-15T03:10:39.845Z,45.39
2022-11-15T03:11:39.853Z,44.10
2022-11-15T03:12:39.867Z,44.75
2022-11-15T03:13:39.829Z,44.75
2022-11-15T03:14:39.809Z,44.75
2022-11-15T03:15:39.796Z,44.75
2022-11-15T03:16:39.782Z,45.71
2022-11-15T03:17:39.786Z,44.10
2022-11-15T03:18:39.802Z,44.75
2022-11-15T03:19:39.758Z,45.39
2022-11-15T03:20:39.732Z,45.71
2022-11-15T03:21:39.712Z,45.39
2022-11-15T03:22:39.733Z,44.42
2022-11-15T03:23:39.676Z,45.39
2022-11-15T03:24:39.670Z,45.39
2022-11-15T03:25:39.679Z,45.71
2022-11-15T03:26:39.665Z,45.71
2022-11-15T03:27:39.645Z,45.39
2022-11-15T03:28:39.664Z,44.42
2022-11-15T03:29:39.612Z,46.04
2022-11-15T03:30:39.596Z,45.39
2022-11-15T03:31:39.627Z,45.07
2022-11-15T03:32:39.562Z,45.39
2022-11-15T03:33:39.547Z,45.71
2022-11-15T03:34:39.533Z,45.07
2022-11-15T03:35:39.534Z,45.07
2022-11-15T03:36:39.540Z,44.75
2022-11-15T03:37:39.515Z,46.04
2022-11-15T03:38:39.542Z,46.68
2022-11-15T03:39:39.484Z,44.75
2022-11-15T03:40:39.560Z,44.75
2022-11-15T03:41:39.448Z,44.75
2022-11-15T03:42:39.452Z,44.42
2022-11-15T03:43:39.462Z,45.39
2022-11-15T03:44:39.421Z,44.75
2022-11-15T03:45:39.406Z,45.71
2022-11-15T03:46:39.422Z,46.36
2022-11-15T03:47:39.414Z,44.75
2022-11-15T03:48:39.360Z,44.42
2022-11-15T03:49:39.363Z,45.39
2022-11-15T03:50:39.341Z,45.39
2022-11-15T03:51:39.388Z,47.32
2022-11-15T03:52:39.329Z,44.75
2022-11-15T03:53:39.326Z,45.07
2022-11-15T03:54:39.284Z,45.71
2022-11-15T03:55:39.290Z,46.04
2022-11-15T03:56:39.263Z,45.71
2022-11-15T03:57:39.237Z,44.42
2022-11-15T03:58:39.238Z,46.68
2022-11-15T03:59:39.232Z,46.04
2022-11-15T04:00:39.196Z,47.32
2022-11-15T04:01:39.339Z,45.39
2022-11-15T04:02:39.182Z,45.71
2022-11-15T04:03:39.173Z,45.71
2022-11-15T04:04:39.138Z,45.07
2022-11-15T04:05:39.128Z,44.75
2022-11-15T04:06:39.144Z,44.75
2022-11-15T04:07:39.089Z,48.94
2022-11-15T04:08:39.107Z,44.75
2022-11-15T04:09:39.063Z,46.36
2022-11-15T04:10:39.088Z,46.68
2022-11-15T04:11:39.094Z,46.04
2022-11-15T04:12:39.069Z,45.39
2022-11-15T04:13:39.046Z,46.36
2022-11-15T04:14:39.015Z,45.39
2022-11-15T04:15:38.996Z,45.71
2022-11-15T04:16:43.734Z,45.39
2022-11-15T04:17:38.990Z,44.75
2022-11-15T04:18:38.953Z,45.39
2022-11-15T04:19:38.959Z,45.71
2022-11-15T04:20:38.924Z,45.71
2022-11-15T04:21:38.935Z,45.71
2022-11-15T04:22:38.923Z,46.04
2022-11-15T04:23:38.915Z,46.36
2022-11-15T04:24:38.871Z,44.42
2022-11-15T04:25:38.863Z,45.71
2022-11-15T04:26:38.860Z,45.71
2022-11-15T04:27:38.836Z,45.71
2022-11-15T04:28:38.865Z,46.68
2022-11-15T04:29:38.837Z,44.75
2022-11-15T04:30:38.798Z,46.04
2022-11-15T04:31:38.797Z,45.07
2022-11-15T04:32:38.783Z,44.75
2022-11-15T04:33:38.753Z,45.07
2022-11-15T04:34:38.786Z,49.90
2022-11-15T04:35:38.732Z,46.68
2022-11-15T04:36:38.713Z,46.04
2022-11-15T04:37:38.705Z,45.39
2022-11-15T04:38:38.688Z,45.71
2022-11-15T04:39:38.714Z,44.75
2022-11-15T04:40:38.687Z,47.97
2022-11-15T04:41:38.654Z,44.75
2022-11-15T04:42:38.633Z,46.04
2022-11-15T04:43:38.655Z,46.04
2022-11-15T04:44:38.638Z,45.71
2022-11-15T04:45:38.607Z,46.36
2022-11-15T04:46:38.598Z,45.71
2022-11-15T04:47:38.571Z,47.00
2022-11-15T04:48:38.556Z,45.71
2022-11-15T04:49:38.546Z,46.68
2022-11-15T04:50:38.549Z,47.00
2022-11-15T04:51:38.539Z,46.36
2022-11-15T04:52:38.503Z,44.75
2022-11-15T04:53:38.497Z,46.36
2022-11-15T04:54:38.494Z,46.36
2022-11-15T04:55:38.465Z,44.75
2022-11-15T04:56:38.477Z,45.71
2022-11-15T04:57:38.448Z,46.36
2022-11-15T04:58:38.448Z,49.58
2022-11-15T04:59:38.425Z,45.71
2022-11-15T05:00:38.444Z,45.39
2022-11-15T05:01:43.572Z,46.36
2022-11-15T05:02:38.410Z,45.71
2022-11-15T05:03:44.548Z,46.36
2022-11-15T05:04:38.355Z,47.97
2022-11-15T05:05:38.336Z,46.04
2022-11-15T05:06:38.326Z,44.75
2022-11-15T05:07:38.311Z,46.04
2022-11-15T05:08:38.318Z,48.94
2022-11-15T05:09:38.317Z,44.10
2022-11-15T05:10:38.325Z,44.42
2022-11-15T05:11:38.303Z,47.00
2022-11-15T05:12:38.266Z,45.71
2022-11-15T05:13:38.246Z,46.68
2022-11-15T05:14:38.211Z,46.36
2022-11-15T05:15:38.256Z,49.58
2022-11-15T05:16:38.198Z,45.71
2022-11-15T05:17:38.193Z,46.04
2022-11-15T05:18:38.186Z,45.07
2022-11-15T05:19:38.198Z,46.36
2022-11-15T05:20:38.160Z,45.71
2022-11-15T05:21:38.144Z,46.04
2022-11-15T05:22:38.127Z,45.71
2022-11-15T05:23:38.099Z,46.04
2022-11-15T05:24:38.099Z,47.00
2022-11-15T05:25:38.117Z,45.39
2022-11-15T05:26:38.119Z,47.97
2022-11-15T05:27:38.060Z,46.68
2022-11-15T05:28:38.039Z,45.71
2022-11-15T05:29:38.053Z,43.78
2022-11-15T05:30:38.000Z,48.29
2022-11-15T05:31:38.018Z,44.75
2022-11-15T05:32:37.986Z,49.90
2022-11-15T05:33:38.008Z,47.32
2022-11-15T05:34:37.950Z,46.68
2022-11-15T05:35:37.947Z,46.36
2022-11-15T05:36:37.926Z,45.71
2022-11-15T05:37:37.929Z,46.68
2022-11-15T05:38:37.927Z,46.04
2022-11-15T05:39:37.900Z,47.00
2022-11-15T05:40:37.890Z,46.36
2022-11-15T05:41:37.891Z,47.00
2022-11-15T05:42:37.854Z,46.36
2022-11-15T05:43:37.851Z,46.36
2022-11-15T05:44:37.823Z,46.36
2022-11-15T05:45:37.835Z,46.68
2022-11-15T05:46:37.801Z,47.00
2022-11-15T05:47:37.775Z,46.36
2022-11-15T05:48:37.760Z,46.36
2022-11-15T05:49:37.754Z,47.32
2022-11-15T05:50:37.738Z,45.39
2022-11-15T05:51:37.722Z,46.04
2022-11-15T05:52:37.718Z,47.00
2022-11-15T05:53:37.723Z,48.61
2022-11-15T05:54:37.693Z,45.71
2022-11-15T05:55:37.690Z,45.71
2022-11-15T05:56:37.679Z,44.75
2022-11-15T05:57:37.694Z,45.07
2022-11-15T05:58:37.660Z,46.36
2022-11-15T05:59:37.634Z,45.71
2022-11-15T06:00:37.623Z,45.39
2022-11-15T06:01:37.650Z,49.90
2022-11-15T06:02:37.651Z,43.46
2022-11-15T06:03:37.575Z,45.71
2022-11-15T06:04:37.545Z,46.04
2022-11-15T06:05:37.544Z,45.71
2022-11-15T06:06:37.544Z,50.55
2022-11-15T06:07:37.562Z,46.36
2022-11-15T06:08:37.506Z,47.32
2022-11-15T06:09:37.515Z,46.36
2022-11-15T06:10:37.543Z,46.68
2022-11-15T06:11:37.491Z,47.00
2022-11-15T06:12:37.448Z,46.68
2022-11-15T06:13:37.461Z,45.71
2022-11-15T06:14:37.455Z,51.19
2022-11-15T06:15:37.433Z,47.00
2022-11-15T06:16:37.413Z,46.68
2022-11-15T06:17:37.381Z,48.94
2022-11-15T06:18:37.387Z,48.29
2022-11-15T06:19:37.372Z,46.36
2022-11-15T06:20:37.382Z,47.00
2022-11-15T06:21:37.347Z,45.71
2022-11-15T06:22:37.330Z,47.65
2022-11-15T06:23:37.324Z,47.00
2022-11-15T06:24:37.299Z,47.32
2022-11-15T06:25:37.374Z,51.51
2022-11-15T06:26:37.260Z,44.10
2022-11-15T06:27:37.320Z,48.61
2022-11-15T06:28:37.231Z,47.00
2022-11-15T06:29:37.254Z,53.45
2022-11-15T06:30:37.218Z,48.29
2022-11-15T06:31:37.225Z,46.68
2022-11-15T06:32:37.206Z,47.97
2022-11-15T06:33:37.191Z,47.32
2022-11-15T06:34:37.156Z,47.97
2022-11-15T06:35:37.181Z,50.87
2022-11-15T06:36:37.136Z,52.16
2022-11-15T06:37:37.139Z,51.84
2022-11-15T06:38:37.127Z,46.68
2022-11-15T06:39:37.119Z,47.97
2022-11-15T06:40:37.105Z,47.32
2022-11-15T06:41:37.072Z,47.97
2022-11-15T06:42:37.074Z,49.58
2022-11-15T06:43:37.061Z,54.41
2022-11-15T06:44:37.073Z,48.29
2022-11-15T06:45:37.083Z,49.58
2022-11-15T06:46:37.052Z,47.00
2022-11-15T06:47:37.008Z,48.94
2022-11-15T06:48:36.984Z,50.22
2022-11-15T06:49:37.003Z,56.35
2022-11-15T06:50:36.963Z,47.97
2022-11-15T06:51:37.008Z,46.68
2022-11-15T06:52:37.024Z,57.64
2022-11-15T06:53:36.938Z,48.61
2022-11-15T06:54:36.899Z,59.25
2022-11-15T06:55:36.888Z,63.44
2022-11-15T06:56:36.882Z,59.25
2022-11-15T06:57:36.912Z,67.63
2022-11-15T06:58:36.847Z,65.37
2022-11-15T06:59:40.474Z,66.98
2022-11-15T07:00:36.861Z,60.21
2022-11-15T07:01:36.911Z,68.59
2022-11-15T07:02:36.803Z,56.99
2022-11-15T07:03:36.804Z,46.36
2022-11-15T07:04:36.927Z,65.37
2022-11-15T07:05:36.758Z,66.66
2022-11-15T07:06:36.745Z,48.94
2022-11-15T07:07:36.956Z,51.84
2022-11-15T07:08:36.786Z,58.93
2022-11-15T07:09:36.768Z,49.90
2022-11-15T07:10:36.896Z,49.26
2022-11-15T07:11:36.948Z,47.65
2022-11-15T07:12:36.832Z,49.58
2022-11-15T07:13:37.072Z,47.00
2022-11-15T07:14:36.858Z,51.19
2022-11-15T07:15:36.907Z,53.12
2022-11-15T07:16:36.675Z,49.26
2022-11-15T07:17:36.810Z,51.19
2022-11-15T07:18:36.847Z,47.00
2022-11-15T07:19:36.846Z,50.22
2022-11-15T07:20:36.860Z,49.90
2022-11-15T07:21:36.799Z,47.00
2022-11-15T07:22:36.729Z,51.19
2022-11-15T07:23:36.658Z,52.80
2022-11-15T07:24:36.738Z,47.00
2022-11-15T07:25:36.644Z,47.00
2022-11-15T07:26:36.569Z,46.36
2022-11-15T07:27:36.868Z,48.29
2022-11-15T07:28:36.606Z,46.36
2022-11-15T07:29:36.679Z,47.00
2022-11-15T07:30:39.956Z,48.29
2022-11-15T07:31:37.548Z,47.65
2022-11-15T07:32:37.240Z,46.04
2022-11-15T07:33:37.923Z,47.32
2022-11-15T07:34:36.742Z,46.36
2022-11-15T07:35:36.925Z,49.26
2022-11-15T07:36:36.667Z,47.65
2022-11-15T07:37:36.502Z,47.65
2022-11-15T07:38:42.505Z,47.32
2022-11-15T07:39:36.375Z,46.36
2022-11-15T07:40:36.704Z,48.61
2022-11-15T07:41:36.643Z,47.00
2022-11-15T07:42:36.722Z,46.68
2022-11-15T07:43:36.577Z,45.39
2022-11-15T07:44:36.492Z,46.36
2022-11-15T07:45:36.964Z,48.94
2022-11-15T07:46:36.309Z,54.41
2022-11-15T07:47:36.287Z,52.48
2022-11-15T07:48:43.831Z,55.06
2022-11-15T07:49:36.272Z,51.19
2022-11-15T07:50:36.444Z,56.99
2022-11-15T07:51:36.645Z,47.97
2022-11-15T07:52:36.680Z,46.04
2022-11-15T07:53:36.301Z,46.36
2022-11-15T07:54:36.198Z,45.71
2022-11-15T07:55:36.197Z,46.36
2022-11-15T07:56:36.356Z,45.39
2022-11-15T07:57:36.093Z,45.39
2022-11-15T07:58:36.119Z,46.68
2022-11-15T07:59:36.716Z,53.12
2022-11-15T08:00:36.195Z,44.75
2022-11-15T08:01:36.325Z,47.00
2022-11-15T08:02:36.164Z,45.71
2022-11-15T08:03:36.134Z,50.55
2022-11-15T08:04:36.078Z,46.36
2022-11-15T08:05:36.193Z,47.00
2022-11-15T08:06:36.027Z,45.39
2022-11-15T08:07:36.135Z,45.39
2022-11-15T08:08:35.975Z,46.04
2022-11-15T08:09:36.102Z,47.97
2022-11-15T08:10:40.438Z,47.00
2022-11-15T08:11:35.998Z,46.04
2022-11-15T08:12:36.213Z,47.97
2022-11-15T08:13:36.095Z,47.00
2022-11-15T08:14:35.909Z,48.29
2022-11-15T08:15:35.964Z,47.65
2022-11-15T08:16:36.747Z,47.97
2022-11-15T08:17:35.899Z,47.65
2022-11-15T08:18:35.939Z,49.26
2022-11-15T08:19:35.828Z,46.36
2022-11-15T08:20:35.878Z,49.26
2022-11-15T08:21:35.887Z,48.61
2022-11-15T08:22:35.865Z,47.32
2022-11-15T08:23:35.992Z,48.29
2022-11-15T08:24:35.885Z,45.71
2022-11-15T08:25:35.984Z,46.68
2022-11-15T08:26:35.770Z,47.00
2022-11-15T08:27:36.219Z,46.68
2022-11-15T08:28:35.829Z,48.29
2022-11-15T08:29:35.668Z,45.39
2022-11-15T08:30:35.676Z,45.39
2022-11-15T08:31:35.830Z,46.36
2022-11-15T08:32:35.841Z,46.68
2022-11-15T08:33:35.937Z,54.09
2022-11-15T08:34:35.635Z,46.36
2022-11-15T08:35:35.638Z,47.00
2022-11-15T08:36:44.624Z,46.04
2022-11-15T08:37:35.644Z,49.26
2022-11-15T08:38:35.786Z,44.10
2022-11-15T08:39:35.547Z,49.58
2022-11-15T08:40:35.894Z,44.42
2022-11-15T08:41:35.575Z,52.16
2022-11-15T08:42:35.511Z,52.80
2022-11-15T08:43:35.696Z,45.39
2022-11-15T08:44:35.493Z,47.97
2022-11-15T08:45:35.470Z,50.87
2022-11-15T08:46:35.473Z,47.32
2022-11-15T08:47:35.460Z,47.32
2022-11-15T08:48:35.591Z,44.10
2022-11-15T08:49:35.424Z,44.10
2022-11-15T08:50:35.419Z,43.13
2022-11-15T08:51:35.414Z,44.10
2022-11-15T08:52:35.407Z,55.38
2022-11-15T08:53:35.427Z,51.19
2022-11-15T08:54:35.354Z,48.61
2022-11-15T08:55:35.332Z,49.58
2022-11-15T08:56:35.390Z,49.26
2022-11-15T08:57:35.308Z,45.71
2022-11-15T08:58:35.654Z,44.10
2022-11-15T08:59:35.315Z,47.00
2022-11-15T09:00:35.333Z,48.29
2022-11-15T09:01:35.361Z,43.13
2022-11-15T09:02:35.232Z,42.49
2022-11-15T09:03:35.255Z,45.07
2022-11-15T09:04:35.269Z,42.81
2022-11-15T09:05:35.226Z,43.78
2022-11-15T09:06:37.724Z,42.17
2022-11-15T09:07:35.311Z,40.23
2022-11-15T09:08:50.568Z,46.36
2022-11-15T09:09:35.224Z,39.59
2022-11-15T09:10:35.229Z,40.88
2022-11-15T09:11:35.152Z,40.56
2022-11-15T09:12:35.157Z,41.85
2022-11-15T09:13:35.109Z,44.10
2022-11-15T09:14:35.113Z,45.71
2022-11-15T09:15:35.165Z,41.20
2022-11-15T09:16:35.113Z,41.85
2022-11-15T09:17:35.109Z,41.85
2022-11-15T09:18:35.294Z,54.41
2022-11-15T09:19:35.018Z,45.71
2022-11-15T09:20:35.114Z,41.85
2022-11-15T09:21:35.062Z,66.66
2022-11-15T09:22:34.987Z,41.20
2022-11-15T09:23:34.966Z,42.49
2022-11-15T09:24:34.972Z,42.17
2022-11-15T09:25:34.918Z,42.17
2022-11-15T09:26:34.911Z,40.56
2022-11-15T09:27:34.915Z,46.04
2022-11-15T09:28:35.520Z,40.88
2022-11-15T09:29:34.872Z,47.65
2022-11-15T09:30:34.988Z,41.85
2022-11-15T09:31:34.864Z,42.17
2022-11-15T09:32:39.047Z,39.91
2022-11-15T09:33:35.240Z,48.61
2022-11-15T09:34:34.823Z,41.20
2022-11-15T09:35:34.808Z,42.49
2022-11-15T09:36:34.780Z,40.88
2022-11-15T09:37:34.763Z,38.62
2022-11-15T09:38:35.293Z,41.52
2022-11-15T09:39:34.736Z,44.75
2022-11-15T09:40:34.734Z,47.00
2022-11-15T09:41:34.710Z,50.22
2022-11-15T09:42:34.718Z,39.59
2022-11-15T09:43:34.809Z,40.88
2022-11-15T09:44:34.691Z,40.23
2022-11-15T09:45:34.673Z,49.26
2022-11-15T09:46:34.666Z,45.39
2022-11-15T09:47:34.649Z,42.17
2022-11-15T09:48:34.902Z,41.52
2022-11-15T09:49:34.628Z,46.36
2022-11-15T09:50:34.626Z,45.39
2022-11-15T09:51:34.595Z,42.81
2022-11-15T09:52:34.658Z,70.85
2022-11-15T09:54:09.179Z,45.71
2022-11-15T09:54:52.882Z,41.20
2022-11-15T09:55:34.540Z,44.10
2022-11-15T09:56:34.792Z,39.91
2022-11-15T09:57:34.508Z,42.49
2022-11-15T09:58:34.898Z,44.10
2022-11-15T09:59:34.544Z,41.85
2022-11-15T10:00:50.127Z,48.94
2022-11-15T10:01:34.498Z,50.55
2022-11-15T10:02:34.655Z,42.81
2022-11-15T10:03:34.439Z,42.81
2022-11-15T10:04:34.634Z,45.71
2022-11-15T10:05:34.531Z,44.75
2022-11-15T10:06:34.572Z,50.22
2022-11-15T10:07:34.460Z,46.68
2022-11-15T10:08:35.037Z,47.65
2022-11-15T10:09:34.589Z,41.85
2022-11-15T10:10:34.555Z,43.78
2022-11-15T10:11:38.881Z,44.75
2022-11-15T10:12:34.369Z,38.95
2022-11-15T10:13:34.351Z,46.68
2022-11-15T10:14:34.398Z,41.52
2022-11-15T10:15:34.390Z,39.91
2022-11-15T10:16:34.384Z,42.81
2022-11-15T10:17:34.436Z,37.98
2022-11-15T10:18:34.661Z,38.30
2022-11-15T10:19:34.533Z,37.66
2022-11-15T10:20:34.521Z,48.61
2022-11-15T10:21:34.444Z,44.10
2022-11-15T10:22:34.566Z,50.22
2022-11-15T10:23:34.510Z,39.27
2022-11-15T10:24:34.461Z,37.66
2022-11-15T10:25:34.470Z,36.69
2022-11-15T10:26:34.198Z,46.36
2022-11-15T10:27:34.645Z,41.52
2022-11-15T10:28:34.816Z,39.91
2022-11-15T10:29:34.473Z,41.85
2022-11-15T10:30:34.357Z,46.36
2022-11-15T10:31:34.620Z,45.39
2022-11-15T10:32:34.414Z,45.07
2022-11-15T10:33:34.471Z,42.49
2022-11-15T10:34:34.631Z,45.07
2022-11-15T10:35:34.444Z,47.65
2022-11-15T10:36:34.376Z,44.42
2022-11-15T10:37:34.668Z,43.78
2022-11-15T10:38:34.949Z,43.78
2022-11-15T10:39:34.148Z,49.90
2022-11-15T10:40:34.526Z,43.78
2022-11-15T10:41:34.208Z,41.52
2022-11-15T10:42:34.447Z,39.27
2022-11-15T10:43:34.306Z,40.23
2022-11-15T10:44:34.165Z,38.62
2022-11-15T10:45:34.054Z,39.59
2022-11-15T10:46:49.349Z,41.52
2022-11-15T10:47:39.203Z,38.95
2022-11-15T10:48:34.130Z,38.95
2022-11-15T10:49:33.846Z,41.85
2022-11-15T10:50:33.968Z,39.59
2022-11-15T10:51:33.827Z,39.91
2022-11-15T10:52:34.457Z,40.88
2022-11-15T10:53:33.997Z,40.23
2022-11-15T10:54:33.817Z,43.13
2022-11-15T10:55:34.523Z,45.71
2022-11-15T10:56:34.050Z,38.62
2022-11-15T10:57:33.870Z,39.91
2022-11-15T10:58:34.119Z,46.36
2022-11-15T10:59:38.657Z,43.78
2022-11-15T11:00:33.801Z,42.49
2022-11-15T11:01:33.770Z,47.00
2022-11-15T11:02:34.094Z,38.95
2022-11-15T11:03:34.156Z,42.81
2022-11-15T11:05:46.009Z,47.32
2022-11-15T11:06:47.022Z,45.71
2022-11-15T11:07:46.972Z,48.61
2022-11-15T11:08:46.952Z,42.17
2022-11-15T11:09:46.957Z,46.04
2022-11-15T11:10:51.908Z,53.77
2022-11-15T11:11:46.928Z,41.85
2022-11-15T11:12:46.908Z,39.91
2022-11-15T11:13:46.892Z,39.27
2022-11-15T11:14:46.865Z,51.19
2022-11-15T11:15:46.865Z,44.10
2022-11-15T11:16:46.841Z,59.25
2022-11-15T11:17:46.845Z,57.31
2022-11-15T11:18:46.845Z,40.88
2022-11-15T11:19:46.820Z,59.89
2022-11-15T11:20:46.781Z,40.56
2022-11-15T11:21:46.778Z,40.56
2022-11-15T11:22:46.788Z,42.17
2022-11-15T11:23:46.748Z,40.88
2022-11-15T11:24:46.746Z,44.75
2022-11-15T11:25:46.716Z,43.78
2022-11-15T11:26:46.720Z,41.85
2022-11-15T11:27:46.711Z,39.27
2022-11-15T11:28:46.693Z,43.46
2022-11-15T11:29:46.680Z,57.31
2022-11-15T11:30:46.654Z,38.95
2022-11-15T11:31:46.655Z,43.78
2022-11-15T11:32:47.332Z,38.62
2022-11-15T11:33:46.631Z,38.62
2022-11-15T11:34:46.608Z,41.20
2022-11-15T11:35:46.623Z,40.88
2022-11-15T11:36:46.604Z,44.75
2022-11-15T11:37:46.584Z,44.75
2022-11-15T11:38:46.552Z,42.81
2022-11-15T11:39:46.538Z,50.55
2022-11-15T11:40:46.518Z,41.85
2022-11-15T11:41:46.525Z,40.23
2022-11-15T11:42:46.519Z,39.27
2022-11-15T11:43:46.514Z,40.56
2022-11-15T11:44:46.472Z,41.20
2022-11-15T11:45:47.552Z,42.81
2022-11-15T11:46:46.446Z,43.13
2022-11-15T11:47:46.442Z,41.20
2022-11-15T11:48:46.435Z,38.95
2022-11-15T11:49:46.397Z,39.59
2022-11-15T11:50:46.399Z,43.78
2022-11-15T11:51:46.391Z,45.71
2022-11-15T11:52:46.381Z,42.81
2022-11-15T11:53:46.366Z,39.59
2022-11-15T11:54:46.350Z,40.88
2022-11-15T11:55:46.347Z,42.49
2022-11-15T11:56:46.340Z,41.85
2022-11-15T11:57:46.313Z,37.66
2022-11-15T11:58:46.308Z,40.56
2022-11-15T11:59:46.273Z,41.20
2022-11-15T12:00:46.300Z,40.88
2022-11-15T12:01:46.489Z,39.59
2022-11-15T12:02:46.417Z,38.30
2022-11-15T12:03:46.236Z,42.49
2022-11-15T12:04:46.232Z,42.17
2022-11-15T12:05:46.211Z,38.62
2022-11-15T12:06:46.302Z,41.85
2022-11-15T12:07:46.175Z,37.33
2022-11-15T12:08:46.159Z,38.62
2022-11-15T12:09:46.161Z,45.07
2022-11-15T12:10:46.162Z,42.17
2022-11-15T12:11:46.145Z,40.88
2022-11-15T12:12:46.141Z,43.13
2022-11-15T12:13:46.120Z,45.71
2022-11-15T12:14:46.091Z,50.22
2022-11-15T12:15:46.073Z,41.20
2022-11-15T12:16:46.057Z,41.20
2022-11-15T12:17:46.037Z,44.42
2022-11-15T12:18:46.053Z,37.66
2022-11-15T12:19:46.288Z,37.33
2022-11-15T12:20:46.027Z,37.01
2022-11-15T12:21:46.012Z,40.88
2022-11-15T12:22:45.984Z,37.66
2022-11-15T12:23:46.015Z,43.46
2022-11-15T12:24:46.071Z,44.75
2022-11-15T12:25:45.927Z,37.98
2022-11-15T12:26:45.929Z,50.87
2022-11-15T12:27:45.941Z,41.52
2022-11-15T12:29:05.812Z,39.59
2022-11-15T12:29:45.973Z,41.20
2022-11-15T12:30:45.890Z,40.23
2022-11-15T12:31:45.874Z,39.27
2022-11-15T12:32:45.842Z,46.04
2022-11-15T12:33:45.840Z,41.85
2022-11-15T12:34:45.815Z,38.95
2022-11-15T12:35:45.817Z,40.56
2022-11-15T12:36:45.784Z,38.62
2022-11-15T12:37:45.776Z,38.95
2022-11-15T12:38:45.757Z,49.58
2022-11-15T12:39:45.753Z,56.99
2022-11-15T12:40:45.749Z,59.89
2022-11-15T12:41:45.733Z,61.50
2022-11-15T12:42:45.756Z,54.09
2022-11-15T12:43:45.694Z,62.47
2022-11-15T12:44:45.677Z,75.36
2022-11-15T12:45:45.690Z,62.47
2022-11-15T12:46:45.650Z,71.82
2022-11-15T12:47:45.649Z,79.55
2022-11-15T12:48:45.607Z,62.15
2022-11-15T12:49:45.618Z,40.23
2022-11-15T12:50:45.629Z,40.56
2022-11-15T12:51:45.614Z,40.88
2022-11-15T12:52:45.611Z,39.59
2022-11-15T12:53:45.568Z,40.56